Terminal Aerodrome Forecast
Issued by NWS Mt. Holly, NJ

Home | Current Version | Previous Version | Text Only | Print | Product List | Glossary On
Versions: 1 2 3 4 5 6 7 8 9 10 11 12 13 14 15 16 17
000
FTUS41 KPHI 050542
TAFABE
TAF
KABE 050542Z 0506/0606 VRB03KT P6SM SCT250
     FM051500 30008KT P6SM SCT250
     FM051900 28010G18KT P6SM SCT050
     FM052300 31009KT P6SM BKN060
     FM060100 34004KT P6SM FEW060=

USA.gov is the U.S. government's official web portal to all federal, state and local government web resources and services.